sensor_id;sensor_type;location;lat;lon;timestamp;temperature;humidity
909;DHT22;441;51.192;6.788;2023-10-08T00:02:09;22.40;98.80
909;DHT22;441;51.192;6.788;2023-10-08T00:04:36;22.40;98.80
909;DHT22;441;51.192;6.788;2023-10-08T00:07:03;22.40;98.90
909;DHT22;441;51.192;6.788;2023-10-08T00:09:33;22.40;98.90
909;DHT22;441;51.192;6.788;2023-10-08T00:12:03;22.40;98.90
909;DHT22;441;51.192;6.788;2023-10-08T00:14:30;22.40;98.90
909;DHT22;441;51.192;6.788;2023-10-08T00:16:59;22.40;98.90
909;DHT22;441;51.192;6.788;2023-10-08T00:19:26;22.40;99.00
909;DHT22;441;51.192;6.788;2023-10-08T00:21:59;22.40;99.00
909;DHT22;441;51.192;6.788;2023-10-08T00:24:31;22.40;99.00
909;DHT22;441;51.192;6.788;2023-10-08T00:26:59;22.30;98.90
909;DHT22;441;51.192;6.788;2023-10-08T00:29:26;22.30;99.00
909;DHT22;441;51.192;6.788;2023-10-08T00:31:53;22.30;99.00
909;DHT22;441;51.192;6.788;2023-10-08T00:34:24;22.30;99.00
909;DHT22;441;51.192;6.788;2023-10-08T00:36:52;22.30;99.00
909;DHT22;441;51.192;6.788;2023-10-08T00:39:19;22.30;99.00
909;DHT22;441;51.192;6.788;2023-10-08T00:41:50;22.30;99.00
909;DHT22;441;51.192;6.788;2023-10-08T00:44:20;22.30;99.10
909;DHT22;441;51.192;6.788;2023-10-08T00:46:49;22.30;99.10
909;DHT22;441;51.192;6.788;2023-10-08T00:49:17;22.30;99.10
909;DHT22;441;51.192;6.788;2023-10-08T00:51:54;22.30;99.10
909;DHT22;441;51.192;6.788;2023-10-08T00:54:43;22.20;99.00
909;DHT22;441;51.192;6.788;2023-10-08T00:57:22;22.30;99.10
909;DHT22;441;51.192;6.788;2023-10-08T00:59:49;22.20;99.10
909;DHT22;441;51.192;6.788;2023-10-08T01:02:19;22.20;99.10
909;DHT22;441;51.192;6.788;2023-10-08T01:04:50;22.20;99.10
909;DHT22;441;51.192;6.788;2023-10-08T01:07:18;22.20;99.10
909;DHT22;441;51.192;6.788;2023-10-08T01:09:45;22.20;99.10
909;DHT22;441;51.192;6.788;2023-10-08T01:12:17;22.20;99.10
909;DHT22;441;51.192;6.788;2023-10-08T01:14:47;22.20;99.20
909;DHT22;441;51.192;6.788;2023-10-08T01:17:16;22.20;99.20
909;DHT22;441;51.192;6.788;2023-10-08T01:19:45;22.20;99.20
909;DHT22;441;51.192;6.788;2023-10-08T01:22:22;22.20;99.20
909;DHT22;441;51.192;6.788;2023-10-08T01:24:53;22.20;99.20
909;DHT22;441;51.192;6.788;2023-10-08T01:27:20;22.20;99.20
909;DHT22;441;51.192;6.788;2023-10-08T01:29:47;22.20;99.20
909;DHT22;441;51.192;6.788;2023-10-08T01:32:15;22.20;99.30
909;DHT22;441;51.192;6.788;2023-10-08T01:34:42;22.20;99.30
909;DHT22;441;51.192;6.788;2023-10-08T01:37:13;22.20;99.30
909;DHT22;441;51.192;6.788;2023-10-08T01:39:41;22.20;99.30
909;DHT22;441;51.192;6.788;2023-10-08T01:42:08;22.10;99.30
909;DHT22;441;51.192;6.788;2023-10-08T01:44:42;22.10;99.30
909;DHT22;441;51.192;6.788;2023-10-08T01:47:11;22.10;99.30
909;DHT22;441;51.192;6.788;2023-10-08T01:49:38;22.10;99.30
909;DHT22;441;51.192;6.788;2023-10-08T01:52:05;22.10;99.30
909;DHT22;441;51.192;6.788;2023-10-08T01:54:38;22.10;99.30
909;DHT22;441;51.192;6.788;2023-10-08T01:57:07;22.10;99.30
909;DHT22;441;51.192;6.788;2023-10-08T01:59:35;22.10;99.30
909;DHT22;441;51.192;6.788;2023-10-08T02:02:03;22.10;99.30
909;DHT22;441;51.192;6.788;2023-10-08T02:04:32;22.10;99.30
909;DHT22;441;51.192;6.788;2023-10-08T02:07:01;22.10;99.40
909;DHT22;441;51.192;6.788;2023-10-08T02:09:29;22.10;99.40
909;DHT22;441;51.192;6.788;2023-10-08T02:11:58;22.10;99.30
909;DHT22;441;51.192;6.788;2023-10-08T02:14:26;22.10;99.40
909;DHT22;441;51.192;6.788;2023-10-08T02:16:57;22.10;99.40
909;DHT22;441;51.192;6.788;2023-10-08T02:19:27;22.10;99.50
909;DHT22;441;51.192;6.788;2023-10-08T02:21:54;22.10;99.40
909;DHT22;441;51.192;6.788;2023-10-08T02:24:22;22.10;99.50
909;DHT22;441;51.192;6.788;2023-10-08T02:26:50;22.00;99.40
909;DHT22;441;51.192;6.788;2023-10-08T02:29:18;22.10;99.50
909;DHT22;441;51.192;6.788;2023-10-08T02:31:46;22.10;99.50
909;DHT22;441;51.192;6.788;2023-10-08T02:34:13;22.10;99.50
909;DHT22;441;51.192;6.788;2023-10-08T02:36:40;22.10;99.50
909;DHT22;441;51.192;6.788;2023-10-08T02:39:08;22.10;99.50
909;DHT22;441;51.192;6.788;2023-10-08T02:41:43;22.10;99.40
909;DHT22;441;51.192;6.788;2023-10-08T02:44:12;22.10;99.50
909;DHT22;441;51.192;6.788;2023-10-08T02:46:40;22.10;99.50
909;DHT22;441;51.192;6.788;2023-10-08T02:49:09;22.00;99.40
909;DHT22;441;51.192;6.788;2023-10-08T02:51:38;22.00;99.50
909;DHT22;441;51.192;6.788;2023-10-08T02:54:07;22.00;99.50
909;DHT22;441;51.192;6.788;2023-10-08T02:56:42;22.00;99.50
909;DHT22;441;51.192;6.788;2023-10-08T02:59:11;22.00;99.50
909;DHT22;441;51.192;6.788;2023-10-08T03:01:39;22.00;99.50
909;DHT22;441;51.192;6.788;2023-10-08T03:04:08;22.00;99.50
909;DHT22;441;51.192;6.788;2023-10-08T03:06:43;22.00;99.50
909;DHT22;441;51.192;6.788;2023-10-08T03:09:11;22.00;99.50
909;DHT22;441;51.192;6.788;2023-10-08T03:11:39;22.00;99.50
909;DHT22;441;51.192;6.788;2023-10-08T03:14:12;22.00;99.50
909;DHT22;441;51.192;6.788;2023-10-08T03:16:48;22.00;99.50
909;DHT22;441;51.192;6.788;2023-10-08T03:19:16;22.00;99.50
909;DHT22;441;51.192;6.788;2023-10-08T03:21:45;22.00;99.50
909;DHT22;441;51.192;6.788;2023-10-08T03:24:16;22.00;99.50
909;DHT22;441;51.192;6.788;2023-10-08T03:27:06;22.00;99.50
909;DHT22;441;51.192;6.788;2023-10-08T03:29:37;22.00;99.50
909;DHT22;441;51.192;6.788;2023-10-08T03:32:08;22.00;99.50
909;DHT22;441;51.192;6.788;2023-10-08T03:34:43;22.00;99.50
909;DHT22;441;51.192;6.788;2023-10-08T03:37:12;22.00;99.50
909;DHT22;441;51.192;6.788;2023-10-08T03:39:45;22.00;99.50
909;DHT22;441;51.192;6.788;2023-10-08T03:42:26;22.00;99.50
909;DHT22;441;51.192;6.788;2023-10-08T03:44:59;21.90;99.50
909;DHT22;441;51.192;6.788;2023-10-08T03:47:36;22.00;99.60
909;DHT22;441;51.192;6.788;2023-10-08T03:50:06;22.00;99.50
909;DHT22;441;51.192;6.788;2023-10-08T03:52:35;22.00;99.50
909;DHT22;441;51.192;6.788;2023-10-08T03:55:04;22.00;99.50
909;DHT22;441;51.192;6.788;2023-10-08T03:57:46;22.00;99.50
909;DHT22;441;51.192;6.788;2023-10-08T04:00:22;21.90;99.50
909;DHT22;441;51.192;6.788;2023-10-08T04:02:54;21.90;99.50
909;DHT22;441;51.192;6.788;2023-10-08T04:05:27;22.00;99.50
909;DHT22;441;51.192;6.788;2023-10-08T04:08:06;21.90;99.50
909;DHT22;441;51.192;6.788;2023-10-08T04:10:43;21.90;99.40
909;DHT22;441;51.192;6.788;2023-10-08T04:13:27;22.00;99.50
909;DHT22;441;51.192;6.788;2023-10-08T04:15:56;21.90;99.50
909;DHT22;441;51.192;6.788;2023-10-08T04:18:23;21.90;99.40
909;DHT22;441;51.192;6.788;2023-10-08T04:20:51;21.90;99.50
909;DHT22;441;51.192;6.788;2023-10-08T04:23:30;21.90;99.50
909;DHT22;441;51.192;6.788;2023-10-08T04:25:57;21.90;99.40
909;DHT22;441;51.192;6.788;2023-10-08T04:28:24;21.90;99.40
909;DHT22;441;51.192;6.788;2023-10-08T04:30:54;22.00;99.50
909;DHT22;441;51.192;6.788;2023-10-08T04:33:27;21.90;99.40
909;DHT22;441;51.192;6.788;2023-10-08T04:35:58;21.90;99.40
909;DHT22;441;51.192;6.788;2023-10-08T04:38:28;21.90;99.40
909;DHT22;441;51.192;6.788;2023-10-08T04:40:56;21.90;99.40
909;DHT22;441;51.192;6.788;2023-10-08T04:43:27;21.90;99.40
909;DHT22;441;51.192;6.788;2023-10-08T04:45:56;21.90;99.40
909;DHT22;441;51.192;6.788;2023-10-08T04:48:24;21.90;99.40
909;DHT22;441;51.192;6.788;2023-10-08T04:50:52;21.90;99.40
909;DHT22;441;51.192;6.788;2023-10-08T04:53:27;21.90;99.40
909;DHT22;441;51.192;6.788;2023-10-08T04:55:59;21.90;99.40
909;DHT22;441;51.192;6.788;2023-10-08T04:58:31;21.90;99.40
909;DHT22;441;51.192;6.788;2023-10-08T05:01:02;21.90;99.40
909;DHT22;441;51.192;6.788;2023-10-08T05:03:56;21.90;99.40
909;DHT22;441;51.192;6.788;2023-10-08T05:06:49;21.90;99.40
909;DHT22;441;51.192;6.788;2023-10-08T05:09:43;21.90;99.40
909;DHT22;441;51.192;6.788;2023-10-08T05:12:18;21.90;99.40
909;DHT22;441;51.192;6.788;2023-10-08T05:15:04;21.90;99.40
909;DHT22;441;51.192;6.788;2023-10-08T05:17:59;21.90;99.40
909;DHT22;441;51.192;6.788;2023-10-08T05:20:40;21.90;99.40
909;DHT22;441;51.192;6.788;2023-10-08T05:23:11;21.90;99.50
909;DHT22;441;51.192;6.788;2023-10-08T05:26:07;21.90;99.50
909;DHT22;441;51.192;6.788;2023-10-08T05:28:35;21.80;99.40
909;DHT22;441;51.192;6.788;2023-10-08T05:31:13;21.80;99.40
909;DHT22;441;51.192;6.788;2023-10-08T05:34:02;21.90;99.50
909;DHT22;441;51.192;6.788;2023-10-08T05:36:44;21.90;99.50
909;DHT22;441;51.192;6.788;2023-10-08T05:39:36;21.80;99.40
909;DHT22;441;51.192;6.788;2023-10-08T05:42:12;21.90;99.50
909;DHT22;441;51.192;6.788;2023-10-08T05:44:45;21.90;99.50
909;DHT22;441;51.192;6.788;2023-10-08T05:47:32;21.80;99.50
909;DHT22;441;51.192;6.788;2023-10-08T05:50:07;21.80;99.50
909;DHT22;441;51.192;6.788;2023-10-08T05:52:52;21.80;99.50
909;DHT22;441;51.192;6.788;2023-10-08T05:55:28;21.90;99.50
909;DHT22;441;51.192;6.788;2023-10-08T05:58:02;21.80;99.50
909;DHT22;441;51.192;6.788;2023-10-08T06:00:39;21.80;99.50
909;DHT22;441;51.192;6.788;2023-10-08T06:03:13;21.90;99.50
909;DHT22;441;51.192;6.788;2023-10-08T06:06:01;21.80;99.50
909;DHT22;441;51.192;6.788;2023-10-08T06:09:01;21.90;99.50
909;DHT22;441;51.192;6.788;2023-10-08T06:11:48;21.80;99.50
909;DHT22;441;51.192;6.788;2023-10-08T06:14:35;21.90;99.50
909;DHT22;441;51.192;6.788;2023-10-08T06:17:33;21.80;99.50
909;DHT22;441;51.192;6.788;2023-10-08T06:20:10;21.80;99.50
909;DHT22;441;51.192;6.788;2023-10-08T06:22:42;21.80;99.70
909;DHT22;441;51.192;6.788;2023-10-08T06:25:11;21.80;99.90
909;DHT22;441;51.192;6.788;2023-10-08T06:27:48;21.80;99.90
909;DHT22;441;51.192;6.788;2023-10-08T06:30:19;21.80;99.90
909;DHT22;441;51.192;6.788;2023-10-08T06:32:47;21.90;99.90
909;DHT22;441;51.192;6.788;2023-10-08T06:35:16;21.80;99.90
909;DHT22;441;51.192;6.788;2023-10-08T06:37:45;21.80;99.90
909;DHT22;441;51.192;6.788;2023-10-08T06:40:16;21.80;99.90
909;DHT22;441;51.192;6.788;2023-10-08T06:42:57;21.80;99.90
909;DHT22;441;51.192;6.788;2023-10-08T06:45:25;21.80;99.90
909;DHT22;441;51.192;6.788;2023-10-08T06:47:54;21.80;99.90
909;DHT22;441;51.192;6.788;2023-10-08T06:50:22;21.80;99.90
909;DHT22;441;51.192;6.788;2023-10-08T06:52:49;21.80;99.90
909;DHT22;441;51.192;6.788;2023-10-08T06:55:18;21.80;99.90
909;DHT22;441;51.192;6.788;2023-10-08T06:57:49;21.80;99.90
909;DHT22;441;51.192;6.788;2023-10-08T07:00:16;21.80;99.90
909;DHT22;441;51.192;6.788;2023-10-08T07:03:03;21.80;99.90
909;DHT22;441;51.192;6.788;2023-10-08T07:05:33;21.80;99.90
909;DHT22;441;51.192;6.788;2023-10-08T07:08:02;21.80;99.90
909;DHT22;441;51.192;6.788;2023-10-08T07:10:33;21.80;99.90
909;DHT22;441;51.192;6.788;2023-10-08T07:13:01;21.80;99.90
909;DHT22;441;51.192;6.788;2023-10-08T07:15:29;21.80;99.90
909;DHT22;441;51.192;6.788;2023-10-08T07:17:57;21.80;99.90
909;DHT22;441;51.192;6.788;2023-10-08T07:20:34;21.80;99.90
909;DHT22;441;51.192;6.788;2023-10-08T07:23:05;21.80;99.90
909;DHT22;441;51.192;6.788;2023-10-08T07:25:39;21.80;99.90
909;DHT22;441;51.192;6.788;2023-10-08T07:28:07;21.80;99.90
909;DHT22;441;51.192;6.788;2023-10-08T07:30:38;21.80;99.90
909;DHT22;441;51.192;6.788;2023-10-08T07:33:09;21.80;99.90
909;DHT22;441;51.192;6.788;2023-10-08T07:35:43;21.80;99.90
909;DHT22;441;51.192;6.788;2023-10-08T07:38:17;21.80;99.90
909;DHT22;441;51.192;6.788;2023-10-08T07:40:45;21.80;99.90
909;DHT22;441;51.192;6.788;2023-10-08T07:43:12;21.80;99.90
909;DHT22;441;51.192;6.788;2023-10-08T07:45:40;21.80;99.90
909;DHT22;441;51.192;6.788;2023-10-08T07:48:11;21.90;99.90
909;DHT22;441;51.192;6.788;2023-10-08T07:50:44;21.80;99.90
909;DHT22;441;51.192;6.788;2023-10-08T07:53:12;21.80;99.90
909;DHT22;441;51.192;6.788;2023-10-08T07:55:48;21.80;99.90
909;DHT22;441;51.192;6.788;2023-10-08T07:58:15;21.80;99.90
909;DHT22;441;51.192;6.788;2023-10-08T08:00:43;21.90;99.90
909;DHT22;441;51.192;6.788;2023-10-08T08:03:20;21.80;99.90
909;DHT22;441;51.192;6.788;2023-10-08T08:05:47;21.80;99.90
909;DHT22;441;51.192;6.788;2023-10-08T08:08:19;21.80;99.90
909;DHT22;441;51.192;6.788;2023-10-08T08:10:50;21.90;99.90
909;DHT22;441;51.192;6.788;2023-10-08T08:13:24;21.90;99.90
909;DHT22;441;51.192;6.788;2023-10-08T08:15:54;21.90;99.90
909;DHT22;441;51.192;6.788;2023-10-08T08:18:25;21.90;99.90
909;DHT22;441;51.192;6.788;2023-10-08T08:20:59;21.90;99.90
909;DHT22;441;51.192;6.788;2023-10-08T08:23:28;22.00;99.90
909;DHT22;441;51.192;6.788;2023-10-08T08:25:57;22.00;99.90
909;DHT22;441;51.192;6.788;2023-10-08T08:28:37;22.00;99.90
909;DHT22;441;51.192;6.788;2023-10-08T08:31:05;22.00;99.90
909;DHT22;441;51.192;6.788;2023-10-08T08:33:39;22.00;99.90
909;DHT22;441;51.192;6.788;2023-10-08T08:36:19;22.00;99.90
909;DHT22;441;51.192;6.788;2023-10-08T08:38:47;22.00;99.90
909;DHT22;441;51.192;6.788;2023-10-08T08:41:15;22.10;99.90
909;DHT22;441;51.192;6.788;2023-10-08T08:43:47;22.10;99.90
909;DHT22;441;51.192;6.788;2023-10-08T08:46:14;22.00;99.90
909;DHT22;441;51.192;6.788;2023-10-08T08:48:42;22.00;99.90
909;DHT22;441;51.192;6.788;2023-10-08T08:51:10;22.00;99.90
909;DHT22;441;51.192;6.788;2023-10-08T08:53:39;22.00;99.90
909;DHT22;441;51.192;6.788;2023-10-08T08:56:07;22.00;99.90
909;DHT22;441;51.192;6.788;2023-10-08T08:58:37;22.00;99.90
909;DHT22;441;51.192;6.788;2023-10-08T09:01:07;22.00;99.90
909;DHT22;441;51.192;6.788;2023-10-08T09:03:38;22.00;99.90
909;DHT22;441;51.192;6.788;2023-10-08T09:06:05;22.00;99.90
909;DHT22;441;51.192;6.788;2023-10-08T09:08:36;22.10;99.90
909;DHT22;441;51.192;6.788;2023-10-08T09:11:03;22.10;99.90
909;DHT22;441;51.192;6.788;2023-10-08T09:13:31;22.10;99.90
909;DHT22;441;51.192;6.788;2023-10-08T09:16:07;22.10;99.90
909;DHT22;441;51.192;6.788;2023-10-08T09:18:35;22.10;99.90
909;DHT22;441;51.192;6.788;2023-10-08T09:21:10;22.10;99.90
909;DHT22;441;51.192;6.788;2023-10-08T09:23:41;22.10;99.90
909;DHT22;441;51.192;6.788;2023-10-08T09:26:13;22.10;99.90
909;DHT22;441;51.192;6.788;2023-10-08T09:28:44;22.10;99.90
909;DHT22;441;51.192;6.788;2023-10-08T09:31:14;22.20;99.90
909;DHT22;441;51.192;6.788;2023-10-08T09:33:43;22.10;99.90
909;DHT22;441;51.192;6.788;2023-10-08T09:36:10;22.10;99.90
909;DHT22;441;51.192;6.788;2023-10-08T09:38:45;22.10;99.90
909;DHT22;441;51.192;6.788;2023-10-08T09:41:14;22.10;99.90
909;DHT22;441;51.192;6.788;2023-10-08T09:43:41;22.10;99.90
909;DHT22;441;51.192;6.788;2023-10-08T09:46:18;22.20;99.90
909;DHT22;441;51.192;6.788;2023-10-08T09:48:49;22.20;99.90
909;DHT22;441;51.192;6.788;2023-10-08T09:51:18;22.20;99.90
909;DHT22;441;51.192;6.788;2023-10-08T09:53:52;22.20;99.90
909;DHT22;441;51.192;6.788;2023-10-08T09:56:29;22.20;99.90
909;DHT22;441;51.192;6.788;2023-10-08T09:59:00;22.20;99.90
909;DHT22;441;51.192;6.788;2023-10-08T10:01:39;22.10;99.90
909;DHT22;441;51.192;6.788;2023-10-08T10:04:09;22.10;99.90
909;DHT22;441;51.192;6.788;2023-10-08T10:06:38;22.00;99.90
909;DHT22;441;51.192;6.788;2023-10-08T10:09:06;22.10;99.90
909;DHT22;441;51.192;6.788;2023-10-08T10:11:49;22.10;99.90
909;DHT22;441;51.192;6.788;2023-10-08T10:14:18;22.10;99.90
909;DHT22;441;51.192;6.788;2023-10-08T10:17:08;22.10;99.90
909;DHT22;441;51.192;6.788;2023-10-08T10:19:38;22.20;99.90
909;DHT22;441;51.192;6.788;2023-10-08T10:22:13;22.20;99.90
909;DHT22;441;51.192;6.788;2023-10-08T10:24:48;22.20;99.90
909;DHT22;441;51.192;6.788;2023-10-08T10:27:17;22.20;99.90
909;DHT22;441;51.192;6.788;2023-10-08T10:29:45;22.20;99.90
909;DHT22;441;51.192;6.788;2023-10-08T10:32:19;22.20;99.90
909;DHT22;441;51.192;6.788;2023-10-08T10:34:47;22.20;99.90
909;DHT22;441;51.192;6.788;2023-10-08T10:37:19;22.20;99.90
909;DHT22;441;51.192;6.788;2023-10-08T10:39:53;22.20;99.90
909;DHT22;441;51.192;6.788;2023-10-08T10:42:26;22.20;99.90
909;DHT22;441;51.192;6.788;2023-10-08T10:45:13;22.20;99.90
909;DHT22;441;51.192;6.788;2023-10-08T10:48:02;22.10;99.90
909;DHT22;441;51.192;6.788;2023-10-08T10:50:40;22.10;99.90
909;DHT22;441;51.192;6.788;2023-10-08T10:53:17;22.10;99.90
909;DHT22;441;51.192;6.788;2023-10-08T10:55:46;22.10;99.90
909;DHT22;441;51.192;6.788;2023-10-08T10:58:26;22.10;99.90
909;DHT22;441;51.192;6.788;2023-10-08T11:01:04;22.10;99.90
909;DHT22;441;51.192;6.788;2023-10-08T11:03:48;22.10;99.90
909;DHT22;441;51.192;6.788;2023-10-08T11:06:14;22.00;99.90
909;DHT22;441;51.192;6.788;2023-10-08T11:08:49;22.00;99.90
909;DHT22;441;51.192;6.788;2023-10-08T11:11:18;22.00;99.90
909;DHT22;441;51.192;6.788;2023-10-08T11:13:45;22.00;99.90
909;DHT22;441;51.192;6.788;2023-10-08T11:16:24;22.00;99.90
909;DHT22;441;51.192;6.788;2023-10-08T11:18:53;22.00;99.90
909;DHT22;441;51.192;6.788;2023-10-08T11:21:24;22.00;99.90
909;DHT22;441;51.192;6.788;2023-10-08T11:23:57;22.00;99.90
909;DHT22;441;51.192;6.788;2023-10-08T11:26:34;22.00;99.90
909;DHT22;441;51.192;6.788;2023-10-08T11:29:05;22.00;99.90
909;DHT22;441;51.192;6.788;2023-10-08T11:31:41;22.00;99.90
909;DHT22;441;51.192;6.788;2023-10-08T11:34:21;22.00;99.90
909;DHT22;441;51.192;6.788;2023-10-08T11:36:53;22.00;99.90
909;DHT22;441;51.192;6.788;2023-10-08T11:39:21;22.00;99.90
909;DHT22;441;51.192;6.788;2023-10-08T11:41:59;22.00;99.90
909;DHT22;441;51.192;6.788;2023-10-08T11:44:53;22.00;99.90
909;DHT22;441;51.192;6.788;2023-10-08T11:47:25;22.00;99.90
909;DHT22;441;51.192;6.788;2023-10-08T11:50:11;22.00;99.90
909;DHT22;441;51.192;6.788;2023-10-08T11:52:45;22.00;99.90
909;DHT22;441;51.192;6.788;2023-10-08T11:58:02;22.00;99.90
909;DHT22;441;51.192;6.788;2023-10-08T12:00:36;22.00;99.90
909;DHT22;441;51.192;6.788;2023-10-08T12:03:09;22.00;99.90
909;DHT22;441;51.192;6.788;2023-10-08T12:05:39;22.00;99.90
909;DHT22;441;51.192;6.788;2023-10-08T12:08:13;22.00;99.90
909;DHT22;441;51.192;6.788;2023-10-08T12:10:41;21.90;99.90
909;DHT22;441;51.192;6.788;2023-10-08T12:13:09;22.00;99.90
909;DHT22;441;51.192;6.788;2023-10-08T12:15:36;21.90;99.90
909;DHT22;441;51.192;6.788;2023-10-08T12:18:06;21.90;99.90
909;DHT22;441;51.192;6.788;2023-10-08T12:20:42;21.90;99.90
909;DHT22;441;51.192;6.788;2023-10-08T12:23:13;21.90;99.90
909;DHT22;441;51.192;6.788;2023-10-08T12:25:50;21.90;99.90
909;DHT22;441;51.192;6.788;2023-10-08T12:28:18;21.90;99.90
909;DHT22;441;51.192;6.788;2023-10-08T12:30:45;21.90;99.90
909;DHT22;441;51.192;6.788;2023-10-08T12:33:14;21.90;99.90
909;DHT22;441;51.192;6.788;2023-10-08T12:35:43;21.90;99.90
909;DHT22;441;51.192;6.788;2023-10-08T12:38:11;21.90;99.90
909;DHT22;441;51.192;6.788;2023-10-08T12:40:38;21.90;99.90
909;DHT22;441;51.192;6.788;2023-10-08T12:43:18;21.90;99.90
909;DHT22;441;51.192;6.788;2023-10-08T12:45:46;21.90;99.90
909;DHT22;441;51.192;6.788;2023-10-08T12:48:19;21.90;99.90
909;DHT22;441;51.192;6.788;2023-10-08T12:50:47;21.90;99.90
909;DHT22;441;51.192;6.788;2023-10-08T12:53:20;21.90;99.90
909;DHT22;441;51.192;6.788;2023-10-08T12:55:50;21.90;99.90
909;DHT22;441;51.192;6.788;2023-10-08T12:58:19;21.90;99.90
909;DHT22;441;51.192;6.788;2023-10-08T13:00:51;21.80;99.90
909;DHT22;441;51.192;6.788;2023-10-08T13:03:24;21.90;99.90
909;DHT22;441;51.192;6.788;2023-10-08T13:05:52;21.80;99.90
909;DHT22;441;51.192;6.788;2023-10-08T13:08:20;21.90;99.90
909;DHT22;441;51.192;6.788;2023-10-08T13:10:47;21.90;99.90
909;DHT22;441;51.192;6.788;2023-10-08T13:13:14;21.90;99.90
909;DHT22;441;51.192;6.788;2023-10-08T13:15:41;21.90;99.90
909;DHT22;441;51.192;6.788;2023-10-08T13:18:08;21.90;99.90
909;DHT22;441;51.192;6.788;2023-10-08T13:20:35;21.90;99.90
909;DHT22;441;51.192;6.788;2023-10-08T13:23:04;21.90;99.90
909;DHT22;441;51.192;6.788;2023-10-08T13:25:31;21.90;99.90
909;DHT22;441;51.192;6.788;2023-10-08T13:27:58;21.90;99.90
909;DHT22;441;51.192;6.788;2023-10-08T13:30:26;21.90;99.90
909;DHT22;441;51.192;6.788;2023-10-08T13:32:53;21.90;99.90
909;DHT22;441;51.192;6.788;2023-10-08T13:35:20;21.90;99.90
909;DHT22;441;51.192;6.788;2023-10-08T13:37:47;21.90;99.90
909;DHT22;441;51.192;6.788;2023-10-08T13:40:15;21.90;99.90
909;DHT22;441;51.192;6.788;2023-10-08T13:42:42;21.90;99.90
909;DHT22;441;51.192;6.788;2023-10-08T13:45:10;21.90;99.90
909;DHT22;441;51.192;6.788;2023-10-08T13:47:51;21.90;99.90
909;DHT22;441;51.192;6.788;2023-10-08T13:50:18;21.90;99.90
909;DHT22;441;51.192;6.788;2023-10-08T13:52:47;21.90;99.90
909;DHT22;441;51.192;6.788;2023-10-08T13:55:15;21.90;99.90
909;DHT22;441;51.192;6.788;2023-10-08T13:57:44;21.90;99.90
909;DHT22;441;51.192;6.788;2023-10-08T14:00:14;21.90;99.90
909;DHT22;441;51.192;6.788;2023-10-08T14:02:42;21.90;99.90
909;DHT22;441;51.192;6.788;2023-10-08T14:05:10;21.90;99.90
909;DHT22;441;51.192;6.788;2023-10-08T14:07:41;21.90;99.90
909;DHT22;441;51.192;6.788;2023-10-08T14:10:10;22.00;99.90
909;DHT22;441;51.192;6.788;2023-10-08T14:12:46;21.90;99.90
909;DHT22;441;51.192;6.788;2023-10-08T14:15:16;22.00;99.90
909;DHT22;441;51.192;6.788;2023-10-08T14:17:45;22.00;99.90
909;DHT22;441;51.192;6.788;2023-10-08T14:20:14;22.00;99.90
909;DHT22;441;51.192;6.788;2023-10-08T14:22:48;22.00;99.90
909;DHT22;441;51.192;6.788;2023-10-08T14:25:25;22.00;99.90
909;DHT22;441;51.192;6.788;2023-10-08T14:27:57;22.00;99.90
909;DHT22;441;51.192;6.788;2023-10-08T14:30:31;22.00;99.90
909;DHT22;441;51.192;6.788;2023-10-08T14:33:07;22.00;99.90
909;DHT22;441;51.192;6.788;2023-10-08T14:35:51;22.00;99.90
909;DHT22;441;51.192;6.788;2023-10-08T14:38:37;22.00;99.90
909;DHT22;441;51.192;6.788;2023-10-08T14:41:21;22.00;99.90
909;DHT22;441;51.192;6.788;2023-10-08T14:44:11;22.00;99.90
909;DHT22;441;51.192;6.788;2023-10-08T14:46:45;21.90;99.90
909;DHT22;441;51.192;6.788;2023-10-08T14:49:15;22.00;99.90
909;DHT22;441;51.192;6.788;2023-10-08T14:51:44;22.00;99.90
909;DHT22;441;51.192;6.788;2023-10-08T14:54:22;22.00;99.90
909;DHT22;441;51.192;6.788;2023-10-08T14:56:51;21.90;99.90
909;DHT22;441;51.192;6.788;2023-10-08T14:59:24;21.90;99.90
909;DHT22;441;51.192;6.788;2023-10-08T15:01:53;21.90;99.90
909;DHT22;441;51.192;6.788;2023-10-08T15:04:21;22.00;99.90
909;DHT22;441;51.192;6.788;2023-10-08T15:06:49;22.00;99.90
909;DHT22;441;51.192;6.788;2023-10-08T15:09:16;22.00;99.90
909;DHT22;441;51.192;6.788;2023-10-08T15:11:53;22.00;99.90
909;DHT22;441;51.192;6.788;2023-10-08T15:14:20;22.00;99.90
909;DHT22;441;51.192;6.788;2023-10-08T15:16:50;22.00;99.90
909;DHT22;441;51.192;6.788;2023-10-08T15:19:19;22.00;99.90
909;DHT22;441;51.192;6.788;2023-10-08T15:21:47;22.00;99.90
909;DHT22;441;51.192;6.788;2023-10-08T15:24:16;22.00;99.90
909;DHT22;441;51.192;6.788;2023-10-08T15:26:44;22.00;99.90
909;DHT22;441;51.192;6.788;2023-10-08T15:29:12;22.00;99.90
909;DHT22;441;51.192;6.788;2023-10-08T15:31:39;22.00;99.90
909;DHT22;441;51.192;6.788;2023-10-08T15:34:08;22.00;99.90
909;DHT22;441;51.192;6.788;2023-10-08T15:36:38;22.00;99.90
909;DHT22;441;51.192;6.788;2023-10-08T15:39:04;22.00;99.90
909;DHT22;441;51.192;6.788;2023-10-08T15:41:35;22.00;99.90
909;DHT22;441;51.192;6.788;2023-10-08T15:44:03;22.00;99.90
909;DHT22;441;51.192;6.788;2023-10-08T15:46:30;22.00;99.90
909;DHT22;441;51.192;6.788;2023-10-08T15:48:59;22.00;99.90
909;DHT22;441;51.192;6.788;2023-10-08T15:51:29;22.00;99.90
909;DHT22;441;51.192;6.788;2023-10-08T15:53:57;22.00;99.90
909;DHT22;441;51.192;6.788;2023-10-08T15:56:24;22.00;99.90
909;DHT22;441;51.192;6.788;2023-10-08T15:58:52;22.20;99.90
909;DHT22;441;51.192;6.788;2023-10-08T16:01:18;22.20;99.90
909;DHT22;441;51.192;6.788;2023-10-08T16:03:45;22.20;99.90
909;DHT22;441;51.192;6.788;2023-10-08T16:06:12;22.20;99.90
909;DHT22;441;51.192;6.788;2023-10-08T16:08:40;22.30;99.90
909;DHT22;441;51.192;6.788;2023-10-08T16:11:07;22.40;99.90
909;DHT22;441;51.192;6.788;2023-10-08T16:13:34;22.50;99.90
909;DHT22;441;51.192;6.788;2023-10-08T16:16:03;22.40;99.90
909;DHT22;441;51.192;6.788;2023-10-08T16:18:30;22.40;99.90
909;DHT22;441;51.192;6.788;2023-10-08T16:20:57;22.50;99.90
909;DHT22;441;51.192;6.788;2023-10-08T16:23:24;22.50;99.90
909;DHT22;441;51.192;6.788;2023-10-08T16:25:54;22.50;99.90
909;DHT22;441;51.192;6.788;2023-10-08T16:28:21;22.50;99.90
909;DHT22;441;51.192;6.788;2023-10-08T16:30:49;22.60;99.90
909;DHT22;441;51.192;6.788;2023-10-08T16:33:19;22.60;99.90
909;DHT22;441;51.192;6.788;2023-10-08T16:35:48;22.60;99.90
909;DHT22;441;51.192;6.788;2023-10-08T16:38:16;22.60;99.90
909;DHT22;441;51.192;6.788;2023-10-08T16:40:43;22.70;99.90
909;DHT22;441;51.192;6.788;2023-10-08T16:43:12;22.70;99.90
909;DHT22;441;51.192;6.788;2023-10-08T16:45:41;22.60;99.90
909;DHT22;441;51.192;6.788;2023-10-08T16:48:10;22.70;99.90
909;DHT22;441;51.192;6.788;2023-10-08T16:50:37;22.70;99.90
909;DHT22;441;51.192;6.788;2023-10-08T16:53:04;22.70;99.90
909;DHT22;441;51.192;6.788;2023-10-08T16:55:31;22.70;99.90
909;DHT22;441;51.192;6.788;2023-10-08T16:57:58;22.70;99.90
909;DHT22;441;51.192;6.788;2023-10-08T17:00:28;22.70;99.90
909;DHT22;441;51.192;6.788;2023-10-08T17:02:55;22.70;99.90
909;DHT22;441;51.192;6.788;2023-10-08T17:05:23;22.80;99.90
909;DHT22;441;51.192;6.788;2023-10-08T17:07:50;22.80;99.90